createdAt,value
2022-10-06T00:00:25.444Z,96572.81
2022-10-06T00:01:28.415Z,96565.75
2022-10-06T00:02:34.234Z,96568.50
2022-10-06T00:03:38.241Z,96565.75
2022-10-06T00:04:40.167Z,96570.06
2022-10-06T00:05:43.317Z,96572.81
2022-10-06T00:06:45.383Z,96572.38
2022-10-06T00:07:48.240Z,96573.16
2022-10-06T00:08:50.036Z,96575.56
2022-10-06T00:09:52.882Z,96571.59
2022-10-06T00:10:55.939Z,96578.66
2022-10-06T00:11:59.044Z,96574.72
2022-10-06T00:13:01.848Z,96578.66
2022-10-06T00:14:04.761Z,96576.28
2022-10-06T00:15:10.591Z,96569.97
2022-10-06T00:16:17.358Z,96575.47
2022-10-06T00:17:19.412Z,96582.09
2022-10-06T00:18:22.307Z,96577.03
2022-10-06T00:19:24.993Z,96580.16
2022-10-06T00:20:28.560Z,96577.81
2022-10-06T00:21:30.443Z,96580.91
2022-10-06T00:22:35.017Z,96582.09
2022-10-06T00:23:36.848Z,96577.41
2022-10-06T00:24:39.718Z,96573.84
2022-10-06T00:25:42.662Z,96583.31
2022-10-06T00:26:46.158Z,96584.09
2022-10-06T00:27:49.768Z,96584.53
2022-10-06T00:28:53.455Z,96581.78
2022-10-06T00:29:55.207Z,96580.97
2022-10-06T00:31:02.254Z,96582.19
2022-10-06T00:32:04.185Z,96585.72
2022-10-06T00:33:07.054Z,96582.59
2022-10-06T00:34:08.900Z,96588.09
2022-10-06T00:35:11.858Z,96577.53
2022-10-06T00:36:13.714Z,96585.00
2022-10-06T00:37:16.548Z,96584.22
2022-10-06T00:38:18.458Z,96592.47
2022-10-06T00:39:22.150Z,96583.88
2022-10-06T00:40:24.100Z,96580.34
2022-10-06T00:41:26.956Z,96589.81
2022-10-06T00:42:30.991Z,96586.72
2022-10-06T00:43:49.686Z,96582.75
2022-10-06T00:44:52.352Z,96583.16
2022-10-06T00:45:55.177Z,96585.13
2022-10-06T00:46:58.554Z,96583.59
2022-10-06T00:48:06.099Z,96593.03
2022-10-06T00:49:13.798Z,96581.25
2022-10-06T00:50:17.268Z,96589.16
2022-10-06T00:51:20.688Z,96582.13
2022-10-06T00:52:26.658Z,96589.59
2022-10-06T00:53:30.200Z,96593.47
2022-10-06T00:54:34.134Z,96586.84
2022-10-06T00:55:35.937Z,96591.13
2022-10-06T00:56:39.695Z,96599.38
2022-10-06T00:57:42.069Z,96587.63
2022-10-06T00:58:44.795Z,96593.88
2022-10-06T00:59:47.177Z,96594.66
2022-10-06T01:00:54.109Z,96597.41
2022-10-06T01:02:00.777Z,96600.59
2022-10-06T01:03:07.974Z,96598.63
2022-10-06T01:04:14.406Z,96596.28
2022-10-06T01:05:23.802Z,96593.53
2022-10-06T01:06:25.682Z,96597.50
2022-10-06T01:07:30.373Z,96588.44
2022-10-06T01:08:34.248Z,96589.25
2022-10-06T01:09:37.720Z,96593.19
2022-10-06T01:10:39.544Z,96590.44
2022-10-06T01:11:42.860Z,96593.19
2022-10-06T01:12:44.676Z,96586.13
2022-10-06T01:13:47.833Z,96593.63
2022-10-06T01:14:50.000Z,96585.38
2022-10-06T01:15:58.979Z,96594.03
2022-10-06T01:17:07.933Z,96595.56
2022-10-06T01:18:14.208Z,96594.03
2022-10-06T01:19:26.917Z,96594.03
2022-10-06T01:20:30.408Z,96585.41
2022-10-06T01:21:37.312Z,96593.66
2022-10-06T01:22:44.426Z,96588.59
2022-10-06T01:23:46.664Z,96592.13
2022-10-06T01:24:52.552Z,96599.59
2022-10-06T01:25:55.063Z,96596.06
2022-10-06T01:26:59.806Z,96589.03
2022-10-06T01:28:04.319Z,96591.78
2022-10-06T01:29:08.806Z,96597.28
2022-10-06T01:30:14.538Z,96598.47
2022-10-06T01:31:18.429Z,96596.91
2022-10-06T01:32:20.673Z,96589.44
2022-10-06T01:33:24.289Z,96594.94
2022-10-06T01:34:28.416Z,96593.41
2022-10-06T01:35:31.176Z,96599.66
2022-10-06T01:36:32.991Z,96593.41
2022-10-06T01:37:36.067Z,96603.59
2022-10-06T01:38:40.352Z,96600.06
2022-10-06T01:39:43.841Z,96600.84
2022-10-06T01:40:46.127Z,96600.06
2022-10-06T01:41:49.029Z,96598.09
2022-10-06T01:42:50.943Z,96613.06
2022-10-06T01:43:53.823Z,96604.81
2022-10-06T01:44:55.634Z,96602.06
2022-10-06T01:45:59.566Z,96602.06
2022-10-06T01:47:03.931Z,96604.81
2022-10-06T01:48:06.991Z,96612.28
2022-10-06T01:49:08.813Z,96613.06
2022-10-06T01:50:12.002Z,96604.81
2022-10-06T01:51:15.937Z,96614.59
2022-10-06T01:52:19.187Z,96606.34
2022-10-06T01:53:22.091Z,96605.56
2022-10-06T01:54:26.355Z,96616.16
2022-10-06T01:55:28.259Z,96614.59
2022-10-06T01:56:33.132Z,96616.16
2022-10-06T01:57:38.937Z,96618.91
2022-10-06T01:58:42.969Z,96605.16
2022-10-06T01:59:45.696Z,96616.16
2022-10-06T02:00:48.478Z,96618.13
2022-10-06T02:01:50.447Z,96611.84
2022-10-06T02:02:53.433Z,96617.34
2022-10-06T02:03:55.336Z,96619.31
2022-10-06T02:04:58.756Z,96620.09
2022-10-06T02:06:01.127Z,96616.56
2022-10-06T02:07:05.265Z,96620.09
2022-10-06T02:08:15.267Z,96620.09
2022-10-06T02:09:19.269Z,96620.09
2022-10-06T02:10:22.843Z,96617.34
2022-10-06T02:11:28.517Z,96625.59
2022-10-06T02:12:31.946Z,96624.81
2022-10-06T02:13:36.667Z,96622.47
2022-10-06T02:14:38.548Z,96628.78
2022-10-06T02:15:41.479Z,96629.56
2022-10-06T02:16:43.663Z,96625.22
2022-10-06T02:17:47.817Z,96626.03
2022-10-06T02:18:50.336Z,96622.47
2022-10-06T02:19:55.402Z,96623.69
2022-10-06T02:20:57.166Z,96622.47
2022-10-06T02:21:59.965Z,96626.81
2022-10-06T02:23:01.726Z,96626.81
2022-10-06T02:24:04.537Z,96629.56
2022-10-06T02:25:07.409Z,96628.34
2022-10-06T02:26:13.478Z,96627.56
2022-10-06T02:27:15.344Z,96626.03
2022-10-06T02:28:18.386Z,96632.72
2022-10-06T02:29:20.512Z,96631.94
2022-10-06T02:30:23.949Z,96631.94
2022-10-06T02:31:27.191Z,96629.19
2022-10-06T02:32:35.364Z,96631.16
2022-10-06T02:33:38.628Z,96636.66
2022-10-06T02:34:41.879Z,96630.41
2022-10-06T02:35:43.974Z,96639.81
2022-10-06T02:36:47.672Z,96637.84
2022-10-06T02:37:49.513Z,96640.59
2022-10-06T02:38:56.316Z,96639.06
2022-10-06T02:39:58.224Z,96639.06
2022-10-06T02:41:02.545Z,96637.50
2022-10-06T02:42:07.335Z,96637.50
2022-10-06T02:43:10.068Z,96643.78
2022-10-06T02:44:11.959Z,96641.44
2022-10-06T02:45:17.879Z,96646.19
2022-10-06T02:46:20.111Z,96642.22
2022-10-06T02:47:26.447Z,96643.44
2022-10-06T02:48:29.620Z,96646.19
2022-10-06T02:49:32.579Z,96648.94
2022-10-06T02:50:34.853Z,96642.66
2022-10-06T02:51:37.989Z,96648.16
2022-10-06T02:52:42.653Z,96650.09
2022-10-06T02:53:48.510Z,96655.59
2022-10-06T02:54:50.762Z,96654.84
2022-10-06T02:55:59.169Z,96649.34
2022-10-06T02:57:02.088Z,96648.56
2022-10-06T02:58:05.424Z,96654.06
2022-10-06T02:59:08.276Z,96653.28
2022-10-06T03:00:12.842Z,96646.22
2022-10-06T03:01:17.686Z,96650.94
2022-10-06T03:02:19.813Z,96645.44
2022-10-06T03:03:22.889Z,96654.91
2022-10-06T03:04:24.711Z,96652.56
2022-10-06T03:05:27.535Z,96657.28
2022-10-06T03:06:30.915Z,96655.72
2022-10-06T03:07:43.775Z,96658.91
2022-10-06T03:08:45.587Z,96662.44
2022-10-06T03:09:48.722Z,96658.13
2022-10-06T03:10:50.696Z,96660.09
2022-10-06T03:11:53.643Z,96662.06
2022-10-06T03:13:02.457Z,96660.50
2022-10-06T03:14:07.864Z,96660.50
2022-10-06T03:15:10.246Z,96661.72
2022-10-06T03:16:18.190Z,96663.69
2022-10-06T03:17:20.911Z,96667.97
2022-10-06T03:18:31.786Z,96664.09
2022-10-06T03:19:33.836Z,96671.56
2022-10-06T03:20:37.121Z,96671.56
2022-10-06T03:21:41.982Z,96669.22
2022-10-06T03:22:44.885Z,96671.97
2022-10-06T03:23:48.464Z,96673.97
2022-10-06T03:24:51.294Z,96673.19
2022-10-06T03:25:56.855Z,96673.19
2022-10-06T03:27:00.202Z,96676.34
2022-10-06T03:28:02.104Z,96681.06
2022-10-06T03:29:11.160Z,96681.06
2022-10-06T03:30:16.458Z,96684.59
2022-10-06T03:31:19.932Z,96682.25
2022-10-06T03:32:24.059Z,96684.22
2022-10-06T03:33:26.943Z,96674.00
2022-10-06T03:34:29.799Z,96677.97
2022-10-06T03:35:33.468Z,96682.69
2022-10-06T03:36:37.218Z,96687.41
2022-10-06T03:37:39.618Z,96687.41
2022-10-06T03:38:43.364Z,96689.78
2022-10-06T03:39:45.234Z,96687.03
2022-10-06T03:40:48.210Z,96684.28
2022-10-06T03:41:50.203Z,96686.69
2022-10-06T03:42:53.330Z,96693.72
2022-10-06T03:43:57.024Z,96687.09
2022-10-06T03:45:01.198Z,96696.09
2022-10-06T03:46:04.897Z,96694.56
2022-10-06T03:47:07.838Z,96694.56
2022-10-06T03:48:11.793Z,96697.72
2022-10-06T03:49:14.511Z,96693.78
2022-10-06T03:50:17.462Z,96692.22
2022-10-06T03:51:22.959Z,96693.00
2022-10-06T03:52:26.250Z,96694.19
2022-10-06T03:53:30.312Z,96699.69
2022-10-06T03:54:32.107Z,96698.16
2022-10-06T03:55:34.931Z,96702.06
2022-10-06T03:56:38.413Z,96697.34
2022-10-06T03:57:41.809Z,96710.31
2022-10-06T03:58:46.638Z,96707.56
2022-10-06T03:59:49.502Z,96709.53
2022-10-06T04:01:01.298Z,96703.28
2022-10-06T04:02:05.467Z,96710.31
2022-10-06T04:03:11.257Z,96707.94
2022-10-06T04:04:14.934Z,96711.13
2022-10-06T04:05:18.673Z,96710.34
2022-10-06T04:06:21.570Z,96711.13
2022-10-06T04:07:24.345Z,96709.56
2022-10-06T04:08:26.826Z,96713.50
2022-10-06T04:09:29.929Z,96719.00
2022-10-06T04:10:33.533Z,96712.75
2022-10-06T04:11:38.635Z,96715.91
2022-10-06T04:12:42.027Z,96710.41
2022-10-06T04:13:45.792Z,96710.81
2022-10-06T04:14:47.575Z,96710.03
2022-10-06T04:15:50.493Z,96708.50
2022-10-06T04:16:53.768Z,96716.72
2022-10-06T04:18:01.281Z,96711.25
2022-10-06T04:19:05.655Z,96708.91
2022-10-06T04:20:09.309Z,96721.44
2022-10-06T04:21:12.289Z,96717.13
2022-10-06T04:22:15.035Z,96707.34
2022-10-06T04:23:17.333Z,96716.00
2022-10-06T04:24:20.143Z,96716.00
2022-10-06T04:25:23.756Z,96716.00
2022-10-06T04:26:30.501Z,96714.44
2022-10-06T04:27:32.435Z,96719.16
2022-10-06T04:28:44.136Z,96726.63
2022-10-06T04:29:46.183Z,96725.09
2022-10-06T04:30:56.619Z,96722.34
2022-10-06T04:32:01.635Z,96728.22
2022-10-06T04:33:08.365Z,96729.00
2022-10-06T04:34:13.078Z,96735.69
2022-10-06T04:35:15.976Z,96735.69
2022-10-06T04:36:23.048Z,96734.91
2022-10-06T04:37:27.927Z,96727.88
2022-10-06T04:38:33.816Z,96738.09
2022-10-06T04:39:37.702Z,96729.03
2022-10-06T04:40:40.699Z,96731.00
2022-10-06T04:41:46.601Z,96734.19
2022-10-06T04:42:53.184Z,96741.63
2022-10-06T04:43:55.832Z,96736.56
2022-10-06T04:44:59.148Z,96746.00
2022-10-06T04:46:18.081Z,96739.72
2022-10-06T04:47:26.795Z,96744.44
2022-10-06T04:48:29.933Z,96752.69
2022-10-06T04:49:33.025Z,96749.94
2022-10-06T04:50:34.897Z,96751.13
2022-10-06T04:51:44.225Z,96747.59
2022-10-06T04:52:46.099Z,96747.59
2022-10-06T04:53:49.728Z,96743.72
2022-10-06T04:54:51.715Z,96748.00
2022-10-06T04:56:02.498Z,96761.72
2022-10-06T04:57:06.329Z,96748.44
2022-10-06T04:58:09.666Z,96745.25
2022-10-06T04:59:11.642Z,96749.97
2022-10-06T05:00:25.284Z,96753.50
2022-10-06T05:01:30.225Z,96751.19
2022-10-06T05:02:34.359Z,96749.97
2022-10-06T05:03:38.807Z,96749.19
2022-10-06T05:04:40.688Z,96749.97
2022-10-06T05:05:45.225Z,96762.94
2022-10-06T05:06:47.207Z,96764.13
2022-10-06T05:07:50.526Z,96763.34
2022-10-06T05:08:54.411Z,96759.41
2022-10-06T05:09:57.338Z,96758.22
2022-10-06T05:11:00.420Z,96763.31
2022-10-06T05:12:03.679Z,96758.59
2022-10-06T05:13:06.194Z,96764.06
2022-10-06T05:14:09.138Z,96766.81
2022-10-06T05:15:15.511Z,96762.91
2022-10-06T05:16:19.158Z,96768.41
2022-10-06T05:17:21.398Z,96760.16
2022-10-06T05:18:27.253Z,96767.19
2022-10-06T05:19:29.395Z,96760.16
2022-10-06T05:20:32.633Z,96762.91
2022-10-06T05:21:34.683Z,96770.34
2022-10-06T05:22:37.662Z,96764.84
2022-10-06T05:23:41.510Z,96768.41
2022-10-06T05:24:44.362Z,96773.09
2022-10-06T05:25:50.982Z,96770.78
2022-10-06T05:26:58.311Z,96769.97
2022-10-06T05:28:03.244Z,96780.56
2022-10-06T05:29:07.184Z,96779.00
2022-10-06T05:30:11.565Z,96775.06
2022-10-06T05:31:18.085Z,96779.00
2022-10-06T05:32:21.465Z,96773.50
2022-10-06T05:33:25.976Z,96778.22
2022-10-06T05:34:28.839Z,96777.03
2022-10-06T05:35:30.886Z,96780.56
2022-10-06T05:36:34.901Z,96792.31
2022-10-06T05:37:37.327Z,96787.25
2022-10-06T05:38:41.108Z,96790.00
2022-10-06T05:39:44.136Z,96791.53
2022-10-06T05:40:46.020Z,96797.03
2022-10-06T05:41:48.809Z,96792.31
2022-10-06T05:42:50.647Z,96799.38
2022-10-06T05:43:53.939Z,96797.03
2022-10-06T05:44:55.811Z,96795.84
2022-10-06T05:46:00.725Z,96797.81
2022-10-06T05:47:02.679Z,96793.13
2022-10-06T05:48:05.700Z,96790.38
2022-10-06T05:49:10.349Z,96800.16
2022-10-06T05:50:16.139Z,96793.88
2022-10-06T05:51:20.142Z,96805.63
2022-10-06T05:52:23.156Z,96809.16
2022-10-06T05:53:25.290Z,96805.63
2022-10-06T05:54:28.164Z,96812.69
2022-10-06T05:55:31.911Z,96813.47
2022-10-06T05:56:36.491Z,96806.00
2022-10-06T05:57:38.599Z,96810.31
2022-10-06T05:58:43.236Z,96820.47
2022-10-06T05:59:46.094Z,96816.91
2022-10-06T06:00:48.050Z,96816.44
2022-10-06T06:01:52.122Z,96817.19
2022-10-06T06:03:14.297Z,96824.19
2022-10-06T06:04:18.495Z,96831.94
2022-10-06T06:05:24.104Z,96835.00
2022-10-06T06:06:28.588Z,96828.28
2022-10-06T06:07:33.487Z,96829.78
2022-10-06T06:08:36.567Z,96824.59
2022-10-06T06:09:38.413Z,96829.63
2022-10-06T06:10:41.199Z,96834.66
2022-10-06T06:11:46.440Z,96830.66
2022-10-06T06:12:49.479Z,96832.53
2022-10-06T06:14:14.120Z,96838.34
2022-10-06T06:15:34.828Z,96838.28
2022-10-06T06:16:39.235Z,96839.38
2022-10-06T06:17:42.269Z,96845.63
2022-10-06T06:18:44.154Z,96842.78
2022-10-06T06:19:50.441Z,96837.25
2022-10-06T06:20:56.339Z,96843.44
2022-10-06T06:21:59.677Z,96844.94
2022-10-06T06:23:01.932Z,96850.41
2022-10-06T06:24:06.884Z,96844.84
2022-10-06T06:25:09.681Z,96847.13
2022-10-06T06:26:14.889Z,96853.75
2022-10-06T06:27:20.883Z,96852.50
2022-10-06T06:28:24.149Z,96854.84
2022-10-06T06:29:26.026Z,96859.50
2022-10-06T06:30:29.117Z,96868.13
2022-10-06T06:31:33.079Z,96865.72
2022-10-06T06:32:36.022Z,96866.09
2022-10-06T06:33:40.026Z,96867.63
2022-10-06T06:34:42.794Z,96866.44
2022-10-06T06:35:46.778Z,96865.66
2022-10-06T06:36:53.689Z,96868.84
2022-10-06T06:37:55.622Z,96868.13
2022-10-06T06:38:59.541Z,96871.28
2022-10-06T06:40:01.596Z,96862.75
2022-10-06T06:41:15.751Z,96869.06
2022-10-06T06:42:18.792Z,96873.88
2022-10-06T06:43:45.246Z,96882.56
2022-10-06T06:44:58.169Z,96879.13
2022-10-06T06:46:32.420Z,96884.31
2022-10-06T06:47:38.043Z,96889.06
2022-10-06T06:48:41.468Z,96883.66
2022-10-06T06:49:44.541Z,96893.50
2022-10-06T06:50:56.156Z,96889.63
2022-10-06T06:51:59.252Z,96901.81
2022-10-06T06:53:03.270Z,96894.38
2022-10-06T06:54:10.304Z,96894.78
2022-10-06T06:55:15.392Z,96890.13
2022-10-06T06:56:18.618Z,96887.78
2022-10-06T06:57:20.567Z,96903.53
2022-10-06T06:58:27.259Z,96898.44
2022-10-06T06:59:34.084Z,96903.94
2022-10-06T07:00:37.839Z,96901.19
2022-10-06T07:01:45.593Z,96899.63
2022-10-06T07:02:48.273Z,96896.09
2022-10-06T07:03:58.626Z,96896.88
2022-10-06T07:05:06.324Z,96905.13
2022-10-06T07:06:13.734Z,96904.34
2022-10-06T07:07:17.032Z,96899.63
2022-10-06T07:08:20.417Z,96907.88
2022-10-06T07:09:23.547Z,96908.66
2022-10-06T07:10:28.033Z,96906.69
2022-10-06T07:11:33.251Z,96916.13
2022-10-06T07:12:36.459Z,96923.94
2022-10-06T07:13:39.461Z,96920.03
2022-10-06T07:15:02.227Z,96926.28
2022-10-06T07:16:25.528Z,96914.13
2022-10-06T07:17:45.864Z,96914.88
2022-10-06T07:19:06.230Z,96918.78
2022-10-06T07:20:27.363Z,96923.06
2022-10-06T07:21:49.026Z,96924.22
2022-10-06T07:23:09.295Z,96924.53
2022-10-06T07:24:29.600Z,96925.22
2022-10-06T07:25:32.701Z,96932.53
2022-10-06T07:26:39.301Z,96932.00
2022-10-06T07:27:44.849Z,96929.50
2022-10-06T07:28:49.567Z,96936.44
2022-10-06T07:29:55.347Z,96932.41
2022-10-06T07:31:00.652Z,96936.59
2022-10-06T07:32:04.830Z,96933.72
2022-10-06T07:33:21.373Z,96935.94
2022-10-06T07:34:24.571Z,96933.50
2022-10-06T07:35:27.511Z,96935.78
2022-10-06T07:36:54.017Z,96936.50
2022-10-06T07:38:07.746Z,96938.75
2022-10-06T07:39:15.379Z,96939.47
2022-10-06T07:40:18.746Z,96940.16
2022-10-06T07:41:22.529Z,96935.38
2022-10-06T07:42:28.974Z,96933.34
2022-10-06T07:43:32.107Z,96936.00
2022-10-06T07:44:35.999Z,96940.69
2022-10-06T07:45:41.410Z,96946.94
2022-10-06T07:46:52.343Z,96940.56
2022-10-06T07:48:10.294Z,96941.69
2022-10-06T07:49:14.692Z,96945.97
2022-10-06T07:50:16.973Z,96943.59
2022-10-06T07:51:20.837Z,96948.31
2022-10-06T07:52:24.584Z,96950.31
2022-10-06T07:53:29.354Z,96945.16
2022-10-06T07:54:38.824Z,96949.91
2022-10-06T07:56:04.671Z,96952.22
2022-10-06T07:57:10.125Z,96962.06
2022-10-06T07:58:13.842Z,96951.38
2022-10-06T07:59:35.651Z,96960.78
2022-10-06T08:00:57.038Z,96962.31
2022-10-06T08:02:19.883Z,96958.38
2022-10-06T08:03:45.639Z,96957.16
2022-10-06T08:04:47.448Z,96967.78
2022-10-06T08:05:58.088Z,96973.31
2022-10-06T08:07:00.225Z,96966.22
2022-10-06T08:08:04.382Z,96964.22
2022-10-06T08:09:06.531Z,96971.72
2022-10-06T08:10:10.038Z,96969.31
2022-10-06T08:11:12.857Z,96973.31
2022-10-06T08:12:34.046Z,96967.78
2022-10-06T08:13:38.091Z,96980.34
2022-10-06T08:14:40.889Z,96977.59
2022-10-06T08:15:42.820Z,96974.06
2022-10-06T08:16:45.989Z,96969.31
2022-10-06T08:17:47.914Z,96972.50
2022-10-06T08:18:53.173Z,96974.84
2022-10-06T08:19:55.131Z,96973.31
2022-10-06T08:20:58.257Z,96975.63
2022-10-06T08:22:04.689Z,96974.06
2022-10-06T08:23:12.041Z,96980.34
2022-10-06T08:24:14.818Z,96975.63
2022-10-06T08:25:17.399Z,96979.59
2022-10-06T08:26:22.814Z,96979.59
2022-10-06T08:27:25.152Z,96982.34
2022-10-06T08:28:30.646Z,96974.84
2022-10-06T08:29:33.758Z,96974.84
2022-10-06T08:30:35.626Z,96979.16
2022-10-06T08:31:39.386Z,96974.44
2022-10-06T08:32:42.811Z,96979.50
2022-10-06T08:33:46.679Z,96983.81
2022-10-06T08:34:49.945Z,96977.09
2022-10-06T08:35:51.824Z,96969.63
2022-10-06T08:37:18.778Z,96974.69
2022-10-06T08:38:19.963Z,96981.00
2022-10-06T08:39:22.716Z,96978.22
2022-10-06T08:40:27.640Z,96981.00
2022-10-06T08:41:39.810Z,96981.78
2022-10-06T08:42:45.635Z,96979.81
2022-10-06T08:43:53.834Z,96973.50
2022-10-06T08:45:00.590Z,96971.13
2022-10-06T08:46:05.032Z,96982.91
2022-10-06T08:47:13.775Z,96986.44
2022-10-06T08:48:19.793Z,96986.44
2022-10-06T08:49:24.836Z,96989.97
2022-10-06T08:50:30.315Z,96987.97
2022-10-06T08:51:49.868Z,96986.81
2022-10-06T08:53:02.992Z,96991.09
2022-10-06T08:54:13.609Z,96993.44
2022-10-06T08:55:29.318Z,96984.41
2022-10-06T08:56:52.028Z,96987.94
2022-10-06T08:58:06.357Z,96986.81
2022-10-06T08:59:10.056Z,96991.09
2022-10-06T09:00:18.000Z,96989.56
2022-10-06T09:01:26.506Z,96991.53
2022-10-06T09:02:32.516Z,96989.56
2022-10-06T09:03:34.586Z,96983.28
2022-10-06T09:04:37.577Z,96992.31
2022-10-06T09:05:40.174Z,96995.06
2022-10-06T09:06:51.015Z,96988.78
2022-10-06T09:08:07.133Z,96984.81
2022-10-06T09:09:25.585Z,96995.44
2022-10-06T09:10:42.610Z,96994.66
2022-10-06T09:11:49.997Z,96989.91
2022-10-06T09:12:57.002Z,96992.69
2022-10-06T09:14:04.546Z,97000.94
2022-10-06T09:15:24.709Z,96991.47
2022-10-06T09:16:31.268Z,96994.22
2022-10-06T09:17:37.879Z,96998.91
2022-10-06T09:19:07.235Z,96994.94
2022-10-06T09:20:20.459Z,96991.75
2022-10-06T09:21:30.557Z,96993.31
2022-10-06T09:22:33.719Z,96989.34
2022-10-06T09:23:58.276Z,96996.41
2022-10-06T09:25:17.199Z,96998.34
2022-10-06T09:26:22.395Z,97001.47
2022-10-06T09:27:33.793Z,96993.97
2022-10-06T09:28:35.740Z,97001.81
2022-10-06T09:29:38.608Z,96996.66
2022-10-06T09:30:42.902Z,96995.09
2022-10-06T09:31:51.010Z,97001.41
2022-10-06T09:32:59.297Z,97002.94
2022-10-06T09:34:10.057Z,96998.22
2022-10-06T09:35:19.678Z,97001.31
2022-10-06T09:36:22.209Z,96996.59
2022-10-06T09:37:25.138Z,97004.88
2022-10-06T09:38:47.647Z,97001.66
2022-10-06T09:39:53.101Z,97004.78
2022-10-06T09:40:56.785Z,97003.59
2022-10-06T09:42:03.897Z,97011.88
2022-10-06T09:43:18.367Z,97007.91
2022-10-06T09:44:25.588Z,97010.25
2022-10-06T09:45:29.010Z,96997.63
2022-10-06T09:46:34.698Z,97010.25
2022-10-06T09:47:39.632Z,97005.50
2022-10-06T09:48:42.846Z,97007.03
2022-10-06T09:50:02.639Z,97002.31
2022-10-06T09:51:13.183Z,97003.09
2022-10-06T09:52:16.213Z,97002.66
2022-10-06T09:53:19.067Z,97006.19
2022-10-06T09:54:22.030Z,97006.97
2022-10-06T09:55:28.762Z,97004.97
2022-10-06T09:56:33.726Z,97001.47
2022-10-06T09:57:37.271Z,97004.63
2022-10-06T09:58:39.690Z,97008.19
2022-10-06T09:59:44.800Z,97004.63
2022-10-06T10:00:51.800Z,97005.44
2022-10-06T10:01:56.255Z,97001.03
2022-10-06T10:03:00.639Z,97006.13
2022-10-06T10:04:21.951Z,97000.94
2022-10-06T10:05:25.217Z,97003.72
2022-10-06T10:06:30.025Z,97009.22
2022-10-06T10:07:33.345Z,97000.19
2022-10-06T10:09:43.500Z,96992.66
2022-10-06T10:10:45.385Z,96997.34
2022-10-06T10:12:18.165Z,97002.06
2022-10-06T10:13:24.294Z,96997.34
2022-10-06T10:14:27.231Z,96998.13
2022-10-06T10:15:33.156Z,96999.66
2022-10-06T10:16:36.206Z,96995.38
2022-10-06T10:17:45.766Z,96993.38
2022-10-06T10:18:50.929Z,96993.38
2022-10-06T10:19:56.090Z,96994.91
2022-10-06T10:21:01.109Z,96999.25
2022-10-06T10:22:03.821Z,96995.28
2022-10-06T10:23:26.049Z,96995.63
2022-10-06T10:24:49.995Z,96995.56
2022-10-06T10:26:02.823Z,97003.41
2022-10-06T10:27:13.198Z,96996.69
2022-10-06T10:28:37.959Z,96995.47
2022-10-06T10:29:59.480Z,96997.03
2022-10-06T10:31:10.292Z,97001.34
2022-10-06T10:32:18.965Z,96995.41
2022-10-06T10:33:32.250Z,97001.69
2022-10-06T10:35:04.584Z,97006.03
2022-10-06T10:36:08.510Z,97007.56
2022-10-06T10:37:16.260Z,96996.53
2022-10-06T10:38:21.270Z,96996.09
2022-10-06T10:39:31.588Z,97009.91
2022-10-06T10:40:38.475Z,97001.63
2022-10-06T10:41:47.686Z,97009.91
2022-10-06T10:42:57.570Z,97007.91
2022-10-06T10:44:10.823Z,97003.16
2022-10-06T10:45:18.202Z,97003.94
2022-10-06T10:46:28.478Z,96998.41
2022-10-06T10:47:34.522Z,96999.63
2022-10-06T10:48:44.384Z,96994.53
2022-10-06T10:49:51.755Z,97000.81
2022-10-06T10:51:02.103Z,97010.31
2022-10-06T10:52:12.956Z,97008.78
2022-10-06T10:53:21.953Z,97000.50
2022-10-06T10:54:31.156Z,97006.78
2022-10-06T10:55:40.599Z,97004.03
2022-10-06T10:56:44.915Z,97003.25
2022-10-06T10:57:48.948Z,97006.78
2022-10-06T10:58:58.096Z,97003.25
2022-10-06T11:00:01.867Z,97001.69
2022-10-06T11:01:14.421Z,97001.69
2022-10-06T11:02:19.965Z,97005.66
2022-10-06T11:03:23.182Z,97004.44
2022-10-06T11:04:25.205Z,97008.44
2022-10-06T11:05:44.148Z,97004.44
2022-10-06T11:07:11.426Z,97004.44
2022-10-06T11:08:22.969Z,97001.69
2022-10-06T11:09:32.169Z,97000.50
2022-10-06T11:10:42.987Z,97000.81
2022-10-06T11:12:01.782Z,96998.41
2022-10-06T11:13:17.029Z,96990.50
2022-10-06T11:14:29.469Z,96995.16
2022-10-06T11:15:59.997Z,96991.91
2022-10-06T11:17:12.118Z,96989.03
2022-10-06T11:18:28.499Z,96995.69
2022-10-06T11:19:44.355Z,96996.84
2022-10-06T11:20:52.688Z,96985.34
2022-10-06T11:22:00.425Z,96987.69
2022-10-06T11:23:26.073Z,96991.97
2022-10-06T11:24:38.333Z,96995.03
2022-10-06T11:25:46.216Z,96989.03
2022-10-06T11:27:13.186Z,96998.13
2022-10-06T11:28:22.175Z,96991.38
2022-10-06T11:29:36.408Z,96989.84
2022-10-06T11:30:54.062Z,96977.56
2022-10-06T11:32:05.565Z,96983.44
2022-10-06T11:33:16.225Z,96982.56
2022-10-06T11:34:18.090Z,96989.22
2022-10-06T11:35:23.762Z,96977.75
2022-10-06T11:36:39.538Z,96980.88
2022-10-06T11:37:49.020Z,96981.22
2022-10-06T11:38:59.462Z,96981.91
2022-10-06T11:40:23.133Z,96984.66
2022-10-06T11:41:31.503Z,96972.06
2022-10-06T11:42:40.888Z,96980.00
2022-10-06T11:43:52.915Z,96984.41
2022-10-06T11:45:03.102Z,96976.56
2022-10-06T11:46:16.336Z,96988.03
2022-10-06T11:47:35.091Z,96981.75
2022-10-06T11:48:38.870Z,96979.41
2022-10-06T11:49:52.010Z,96978.63
2022-10-06T11:50:56.449Z,96980.63
2022-10-06T11:52:38.073Z,96978.63
2022-10-06T11:53:41.951Z,96975.50
2022-10-06T11:54:50.015Z,96972.75
2022-10-06T11:56:22.836Z,96977.16
2022-10-06T11:57:35.985Z,96977.16
2022-10-06T11:59:10.565Z,96974.81
2022-10-06T12:00:50.746Z,96974.03
2022-10-06T12:01:58.649Z,96971.72
2022-10-06T12:03:55.387Z,96974.47
2022-10-06T12:07:04.620Z,96972.56
2022-10-06T12:08:12.634Z,96976.09
2022-10-06T12:09:45.411Z,96967.06
2022-10-06T12:10:51.534Z,96971.00
2022-10-06T12:11:55.639Z,96967.94
2022-10-06T12:13:21.202Z,96972.22
2022-10-06T12:17:55.986Z,96968.69
2022-10-06T12:19:19.299Z,96967.06
2022-10-06T12:20:30.346Z,96972.94
2022-10-06T12:21:48.010Z,96969.72
2022-10-06T12:22:53.118Z,96966.53
2022-10-06T12:24:05.270Z,96971.63
2022-10-06T12:25:21.316Z,96972.41
2022-10-06T12:26:36.082Z,96964.47
2022-10-06T12:27:55.111Z,96961.69
2022-10-06T12:29:04.922Z,96965.22
2022-10-06T12:30:21.152Z,96962.06
2022-10-06T12:31:41.662Z,96957.28
2022-10-06T12:32:50.058Z,96958.06
2022-10-06T12:33:52.536Z,96953.31
2022-10-06T12:35:23.822Z,96953.31
2022-10-06T12:36:29.712Z,96954.13
2022-10-06T12:37:40.648Z,96954.13
2022-10-06T12:38:45.075Z,96951.34
2022-10-06T12:39:46.929Z,96951.34
2022-10-06T12:40:55.799Z,96950.13
2022-10-06T12:41:59.500Z,96948.06
2022-10-06T12:43:26.660Z,96948.84
2022-10-06T12:44:34.444Z,96946.84
2022-10-06T12:45:45.014Z,96949.59
2022-10-06T12:46:50.325Z,96944.06
2022-10-06T12:47:52.769Z,96944.06
2022-10-06T12:49:15.192Z,96940.53
2022-10-06T12:50:25.217Z,96945.66
2022-10-06T12:52:49.750Z,96943.72
2022-10-06T12:53:59.564Z,96942.53
2022-10-06T12:55:22.022Z,96942.88
2022-10-06T12:56:58.924Z,96933.38
2022-10-06T12:58:01.376Z,96942.44
2022-10-06T12:59:24.307Z,96933.38
2022-10-06T13:00:37.648Z,96940.88
2022-10-06T13:01:40.122Z,96939.66
2022-10-06T13:02:45.201Z,96947.88
2022-10-06T13:03:48.315Z,96938.81
2022-10-06T13:04:53.745Z,96940.34
2022-10-06T13:05:58.714Z,96939.59
2022-10-06T13:07:07.750Z,96940.00
2022-10-06T13:08:23.119Z,96942.44
2022-10-06T13:09:25.017Z,96934.59
2022-10-06T13:10:30.258Z,96931.81
2022-10-06T13:11:32.603Z,96930.25
2022-10-06T13:12:39.234Z,96930.25
2022-10-06T13:13:48.053Z,96929.84